aviador You're here:

KATL Decoded Metar

ATLANTA in GA, USA
Report Time2018-01-19 10:52:00
UTC Time2018-01-19 11:16:08
Flight Rules vfr VFR
Wind300° at 06 kt
W.Decomp.*RWY 28: 5.4 kt HW 2.5 kt RCW
RWY 27: 4.9 kt HW 3.4 kt RCW
RWY 26: 4.2 kt HW 4.2 kt RCW
W.Rank300° ranks 6
Current wind is below 300° avg. (8.2)
Visibility9999 m
Phenomena:N/A
Clouds:N/A
Expected CloudBase > 3,200 ft AGL from Temp-Dew spread
CeilingNone
Temp-3°C (ISA -16)
Dew Point-11°C (54% RH)
AAT-8.3°C
QNH1025 hPa
Density Alt-1,368 ft
Elevation971 ft
Report Wrong Elevation
Raw Report
KATL 191052Z 30006KT 10SM CLR M03/M11 A3028 RMK AO2 SLP265
T10281106=

Extra information for KATL:More info

Metar Taf Metar & Taf Last 4 Metars F.Rules Stats Wind Profile Meteogram Temp Stats Airport Information Weather charts Add Link Nearby VenuesMetar ALERT Operation Metar Decoded Social comments

AIRNAV info for KATL